No1 Tokuyama — JK5318 — position and weather

sailwx.info

Track history (hours):
 
Tides and Currents Weather Stations Pressure Air Temp Water Temp Dewpoint Dewpoint Depression Visibility Wind Speed Wind Dir Waves Ship Positions

No1 Tokuyama

Last reported at 2014-Oct-01 10:05 UTC. Time now 2014-Oct-01 18:25 UTC.
Position N 33°57' E 132°41'.

Length 110 m; draft 6.7 m.

Type: Cargo ship. MMSI: 431400487.

Date/timePositionNaut miles runAvg speedWind from/ knotsBaromVisibWave heightAir tempDewpointWater temp
2014-Oct-01 10:05N 33°57' E 132°41'112 4.3
2014-Sep-30 08:04N 34°41' E 134°46'611.7
2014-Sep-30 07:32N 34°38' E 134°52'1111.6
2014-Sep-30 06:33N 34°36' E 135°06'1111.1
2014-Sep-30 05:33N 34°40' E 135°18'3 2.8
2014-Sep-30 04:33N 34°42' E 135°17'0 0.0
2014-Sep-30 03:33N 34°42' E 135°17'0 0.0
2014-Sep-30 02:27N 34°42' E 135°17'0 0.0
2014-Sep-30 01:33N 34°42' E 135°17'0 0.0
2014-Sep-30 00:33N 34°42' E 135°17'4 4.0
2014-Sep-29 23:33N 34°38' E 135°18'1212.1
2014-Sep-29 22:33N 34°35' E 135°04'1313.0
2014-Sep-29 21:32N 34°33' E 134°48'127 2.6
2014-Sep-27 20:30N 33°50' E 132°22'1514.4
2014-Sep-27 19:26N 33°56' E 132°40'10713.0
2014-Sep-27 11:12N 34°31' E 134°41'914.2
2014-Sep-27 10:33N 34°35' E 134°52'1212.2
2014-Sep-27 09:33N 34°36' E 135°06'9 8.8
2014-Sep-27 08:33N 34°41' E 135°14'1 0.6
2014-Sep-27 07:33N 34°42' E 135°14'0 0.0
2014-Sep-27 06:33N 34°42' E 135°14'0 0.0
2014-Sep-27 05:33N 34°42' E 135°14'0 0.0
2014-Sep-27 04:33N 34°42' E 135°14'0 0.0
2014-Sep-27 03:33N 34°42' E 135°14'0 0.0
2014-Sep-27 02:33N 34°42' E 135°14'0 0.0
2014-Sep-27 01:33N 34°42' E 135°14'0 0.0
2014-Sep-27 00:33N 34°42' E 135°14'0 0.0
2014-Sep-26 23:31N 34°42' E 135°14'5 5.2
2014-Sep-26 22:33N 34°38' E 135°18'1 0.9
2014-Sep-26 21:25N 34°39' E 135°19'0 0.0
2014-Sep-26 20:31N 34°39' E 135°19'0 0.0
2014-Sep-26 19:25N 34°39' E 135°19'1 0.6
2014-Sep-26 18:33N 34°38' E 135°19'1212.2
2014-Sep-26 17:33N 34°35' E 135°05'18 0.5
2014-Sep-25 05:22N 34°32' E 134°43'1011.7
2014-Sep-25 04:33N 34°36' E 134°54'10 9.9
2014-Sep-25 03:33N 34°36' E 135°06'1212.5
2014-Sep-25 02:33N 34°37' E 135°21'5 4.7
2014-Sep-25 01:33N 34°39' E 135°27'0 0.0
2014-Sep-25 00:21N 34°39' E 135°27'0 0.0
2014-Sep-24 23:33N 34°39' E 135°27'0 0.0
2014-Sep-24 22:27N 34°39' E 135°27'0 0.0
2014-Sep-24 21:27N 34°39' E 135°27'0 0.0
2014-Sep-24 20:33N 34°39' E 135°27'0 0.0
2014-Sep-24 19:33N 34°39' E 135°27'0 0.0
2014-Sep-24 18:33N 34°39' E 135°27'0 0.0
2014-Sep-24 17:21N 34°39' E 135°27'0 0.0
2014-Sep-24 16:33N 34°39' E 135°27'0 0.0
2014-Sep-24 15:33N 34°39' E 135°27'0 0.0
2014-Sep-24 14:33N 34°39' E 135°27'0 0.0
2014-Sep-24 13:33N 34°39' E 135°27'0 0.0
2014-Sep-24 12:33N 34°39' E 135°27'0 0.0
2014-Sep-24 11:33N 34°39' E 135°27'0 0.0
2014-Sep-24 10:15N 34°39' E 135°27'0 0.0
2014-Sep-24 09:21N 34°39' E 135°27'0 0.0
2014-Sep-24 08:21N 34°39' E 135°27'3 3.7
2014-Sep-24 07:32N 34°38' E 135°23'1212.4
2014-Sep-24 06:33N 34°35' E 135°09'1514.0
2014-Sep-24 05:29N 34°34' E 134°51'  
2014-Sep-21 16:29N 33°50' E 132°23'1614.9
2014-Sep-21 15:25N 33°56' E 132°40'  
Track history (hours):
 
Tides and Currents Weather Stations Pressure Air Temp Water Temp Dewpoint Dewpoint Depression Visibility Wind Speed Wind Dir Waves Ship Positions

No1 Tokuyama

Last reported at 2014-Oct-01 10:05 UTC. Time now 2014-Oct-01 18:25 UTC.
Position N 33°57' E 132°41'.

Length 110 m; draft 6.7 m.

Type: Cargo ship. MMSI: 431400487.

Date/timePositionNaut miles runAvg speedWind from/ knotsBaromVisibWave heightAir tempDewpointWater temp
2014-Oct-01 10:05N 33°57' E 132°41'112 4.3
2014-Sep-30 08:04N 34°41' E 134°46'611.7
2014-Sep-30 07:32N 34°38' E 134°52'1111.6
2014-Sep-30 06:33N 34°36' E 135°06'1111.1
2014-Sep-30 05:33N 34°40' E 135°18'3 2.8
2014-Sep-30 04:33N 34°42' E 135°17'0 0.0
2014-Sep-30 03:33N 34°42' E 135°17'0 0.0
2014-Sep-30 02:27N 34°42' E 135°17'0 0.0
2014-Sep-30 01:33N 34°42' E 135°17'0 0.0
2014-Sep-30 00:33N 34°42' E 135°17'4 4.0
2014-Sep-29 23:33N 34°38' E 135°18'1212.1
2014-Sep-29 22:33N 34°35' E 135°04'1313.0
2014-Sep-29 21:32N 34°33' E 134°48'127 2.6
2014-Sep-27 20:30N 33°50' E 132°22'1514.4
2014-Sep-27 19:26N 33°56' E 132°40'10713.0
2014-Sep-27 11:12N 34°31' E 134°41'914.2
2014-Sep-27 10:33N 34°35' E 134°52'1212.2
2014-Sep-27 09:33N 34°36' E 135°06'9 8.8
2014-Sep-27 08:33N 34°41' E 135°14'1 0.6
2014-Sep-27 07:33N 34°42' E 135°14'0 0.0
2014-Sep-27 06:33N 34°42' E 135°14'0 0.0
2014-Sep-27 05:33N 34°42' E 135°14'0 0.0
2014-Sep-27 04:33N 34°42' E 135°14'0 0.0
2014-Sep-27 03:33N 34°42' E 135°14'0 0.0
2014-Sep-27 02:33N 34°42' E 135°14'0 0.0
2014-Sep-27 01:33N 34°42' E 135°14'0 0.0
2014-Sep-27 00:33N 34°42' E 135°14'0 0.0
2014-Sep-26 23:31N 34°42' E 135°14'5 5.2
2014-Sep-26 22:33N 34°38' E 135°18'1 0.9
2014-Sep-26 21:25N 34°39' E 135°19'0 0.0
2014-Sep-26 20:31N 34°39' E 135°19'0 0.0
2014-Sep-26 19:25N 34°39' E 135°19'1 0.6
2014-Sep-26 18:33N 34°38' E 135°19'1212.2
2014-Sep-26 17:33N 34°35' E 135°05'18 0.5
2014-Sep-25 05:22N 34°32' E 134°43'1011.7
2014-Sep-25 04:33N 34°36' E 134°54'10 9.9
2014-Sep-25 03:33N 34°36' E 135°06'1212.5
2014-Sep-25 02:33N 34°37' E 135°21'5 4.7
2014-Sep-25 01:33N 34°39' E 135°27'0 0.0
2014-Sep-25 00:21N 34°39' E 135°27'0 0.0
2014-Sep-24 23:33N 34°39' E 135°27'0 0.0
2014-Sep-24 22:27N 34°39' E 135°27'0 0.0
2014-Sep-24 21:27N 34°39' E 135°27'0 0.0
2014-Sep-24 20:33N 34°39' E 135°27'0 0.0
2014-Sep-24 19:33N 34°39' E 135°27'0 0.0
2014-Sep-24 18:33N 34°39' E 135°27'0 0.0
2014-Sep-24 17:21N 34°39' E 135°27'0 0.0
2014-Sep-24 16:33N 34°39' E 135°27'0 0.0
2014-Sep-24 15:33N 34°39' E 135°27'0 0.0
2014-Sep-24 14:33N 34°39' E 135°27'0 0.0
2014-Sep-24 13:33N 34°39' E 135°27'0 0.0
2014-Sep-24 12:33N 34°39' E 135°27'0 0.0
2014-Sep-24 11:33N 34°39' E 135°27'0 0.0
2014-Sep-24 10:15N 34°39' E 135°27'0 0.0
2014-Sep-24 09:21N 34°39' E 135°27'0 0.0
2014-Sep-24 08:21N 34°39' E 135°27'3 3.7
2014-Sep-24 07:32N 34°38' E 135°23'1212.4
2014-Sep-24 06:33N 34°35' E 135°09'1514.0
2014-Sep-24 05:29N 34°34' E 134°51'  
2014-Sep-21 16:29N 33°50' E 132°23'1614.9
2014-Sep-21 15:25N 33°56' E 132°40'  

Dump ship's entire track history